Terminal Aerodrome Forecast
Issued by NWS Missoula, MT

Home | Current Version | Previous Version | Text Only | Print | Product List | Glossary On
Versions: 1 2 3 4 5 6 7 8 9 10 11 12
000
FTUS45 KMSO 251734
TAFGPI
TAF
KGPI 251734Z 2518/2618 06008KT P6SM SCT070
     FM260000 03015G25KT P6SM -SHRA BKN060 OVC100
     FM260400 02010KT P6SM VCSH OVC060
     FM260800 01006KT P6SM SCT060 BKN100=

USA.gov is the U.S. government's official web portal to all federal, state and local government web resources and services.